»·PEaware :: FFT576 KSLC-KDEN

FFT576 :: KSLC-KDEN

FLIGHT INFORMATION

Flight Status: Arrived
Operator:
Frontier Airlines
More flights by this operator :: More flights under this callsign
Pilot: John C. (18682)
Aircraft: AIRBUS A320
(A320)
More flights by this aircraft type
Origin: KSLC Salt Lake City Intl
United States
Destination: KDEN Denver Intl
United States
More flights between these airports :: More routes between these airports
Route: NSIGN5 CHE FRNCH3
File this flight plan on PilotEdge
Remarks:
Altitude:
(Current/Filed)
35,000ft
Speed:
(Current/Filed)
444kts
Departed: 01-May-18 03:50 PM
Arrived: 01-May-18 04:53 PM
Distance/Time
Traveled:
339nm/1:03
Distance/Time
To Go:
Arrived

Flight Plot

Page will automatically refresh every two minutes.

Flight plan parsing failed; only flown route is shown


Map Options




Map Legend


Flown Route
Filed Route
Departure Airport
Arrival Airport
Navaid (VOR, NDB)
Fix

Horizontal Profiles

Position Reports

Time Latitude Longitude Heading Altitude Ground
Speed
01-May-18 15:13 40.784842 -111.978442 9 4236ft 0kts
01-May-18 15:14 40.784842 -111.978442 9 4236ft 0kts
01-May-18 15:15 40.784842 -111.978442 9 4236ft 0kts
01-May-18 15:16 40.784842 -111.978442 9 4236ft 0kts
01-May-18 15:17 40.784842 -111.978442 9 4236ft 0kts
01-May-18 15:18 40.784842 -111.978442 9 4236ft 0kts
01-May-18 15:19 40.784842 -111.978442 9 4236ft 0kts
01-May-18 15:20 40.784842 -111.978442 9 4236ft 0kts
01-May-18 15:21 40.784842 -111.978442 9 4236ft 0kts
01-May-18 15:22 40.784842 -111.978442 9 4236ft 0kts
01-May-18 15:23 40.784842 -111.978442 9 4236ft 0kts
01-May-18 15:24 40.784842 -111.978442 9 4236ft 0kts
01-May-18 15:25 40.784842 -111.978442 9 4236ft 0kts
01-May-18 15:26 40.784842 -111.978442 9 4236ft 0kts
01-May-18 15:27 40.784842 -111.978442 9 4236ft 0kts
01-May-18 15:28 40.784842 -111.978442 9 4236ft 0kts
01-May-18 15:29 40.784842 -111.978442 9 4236ft 0kts
01-May-18 15:30 40.784842 -111.978442 9 4236ft 0kts
01-May-18 15:31 40.784842 -111.978442 9 4236ft 0kts
01-May-18 15:32 40.784842 -111.978442 9 4236ft 0kts
01-May-18 15:33 40.784842 -111.978442 9 4236ft 0kts
01-May-18 15:34 40.784842 -111.978442 9 4236ft 0kts
01-May-18 15:35 40.784842 -111.978442 9 4236ft 0kts
01-May-18 15:36 40.784842 -111.978442 9 4236ft 0kts
01-May-18 15:37 40.784842 -111.978442 9 4236ft 0kts
01-May-18 15:38 40.784842 -111.978442 9 4236ft 0kts
01-May-18 15:39 40.784842 -111.978442 9 4236ft 0kts
01-May-18 15:40 40.784351 -111.978550 9 4236ft 2kts
01-May-18 15:41 40.784101 -111.978766 90 4236ft 3kts
01-May-18 15:42 40.784082 -111.977441 85 4236ft 0kts
01-May-18 15:43 40.784082 -111.977441 85 4236ft 0kts
01-May-18 15:44 40.784082 -111.977441 85 4236ft 0kts
01-May-18 15:45 40.784082 -111.977441 85 4236ft 0kts
01-May-18 15:46 40.782006 -111.976157 174 4236ft 20kts
01-May-18 15:48 40.777179 -111.975098 175 4236ft 21kts
01-May-18 15:49 40.774593 -111.973915 56 4236ft 9kts
01-May-18 15:50 40.789960 -111.974905 355 4316ft 176kts
01-May-18 15:51 40.844730 -111.982042 353 7654ft 227kts
01-May-18 15:52 40.914931 -111.991556 353 9986ft 267kts
01-May-18 15:53 40.985192 -112.001079 353 10071ft 271kts
01-May-18 15:54 41.065911 -112.011982 3 12669ft 309kts
01-May-18 15:55 41.115730 -111.933581 96 15868ft 329kts
01-May-18 15:56 41.065376 -111.832695 132 18363ft 358kts
01-May-18 15:57 40.996422 -111.726703 132 20111ft 398kts
01-May-18 15:58 40.926806 -111.608943 111 22237ft 422kts
01-May-18 15:59 40.912899 -111.452503 95 24218ft 439kts
01-May-18 16:00 40.897070 -111.294672 101 25980ft 452kts
01-May-18 16:01 40.877451 -111.129201 101 27661ft 464kts
01-May-18 16:02 40.857181 -110.960420 105 29360ft 470kts
01-May-18 16:03 40.836395 -110.789712 107 30878ft 477kts
01-May-18 16:04 40.814846 -110.615141 107 31915ft 491kts
01-May-18 16:05 40.792584 -110.436642 107 33180ft 496kts
01-May-18 16:06 40.770054 -110.258491 107 34409ft 498kts
01-May-18 16:07 40.747149 -110.079604 107 34974ft 494kts
01-May-18 16:08 40.732541 -109.897839 102 34930ft 502kts
01-May-18 16:09 40.719557 -109.715738 103 34932ft 501kts
01-May-18 16:10 40.706269 -109.533541 103 34931ft 501kts
01-May-18 16:11 40.692636 -109.350593 102 34933ft 501kts
01-May-18 16:12 40.678902 -109.170053 103 34934ft 500kts
01-May-18 16:13 40.664751 -108.988156 104 34893ft 503kts
01-May-18 16:14 40.650172 -108.804455 104 34917ft 508kts
01-May-18 16:15 40.635171 -108.619028 104 34998ft 510kts
01-May-18 16:16 40.619915 -108.434209 104 35060ft 511kts
01-May-18 16:17 40.604759 -108.254097 104 35044ft 509kts
01-May-18 16:18 40.588979 -108.070184 105 35004ft 507kts
01-May-18 16:19 40.572934 -107.886724 105 34985ft 506kts
01-May-18 16:20 40.556615 -107.703488 105 34985ft 506kts
01-May-18 16:21 40.539990 -107.520172 105 34991ft 507kts
01-May-18 16:22 40.523178 -107.338015 105 35025ft 507kts
01-May-18 16:23 40.512189 -107.153710 102 35042ft 509kts
01-May-18 16:24 40.502239 -106.968758 102 35037ft 509kts
01-May-18 16:25 40.491973 -106.783498 102 35038ft 509kts
01-May-18 16:25 40.483218 -106.629554 102 35043ft 509kts
01-May-18 16:26 40.472470 -106.445211 102 34134ft 508kts
01-May-18 16:27 40.461655 -106.264359 102 31836ft 501kts
01-May-18 16:28 40.450620 -106.085040 101 29583ft 489kts
01-May-18 16:29 40.432296 -105.912202 108 27343ft 470kts
01-May-18 16:30 40.406265 -105.746857 107 25116ft 457kts
01-May-18 16:31 40.380807 -105.586647 106 22896ft 443kts
01-May-18 16:32 40.354206 -105.436377 124 21741ft 392kts
01-May-18 16:33 40.291908 -105.329656 139 19979ft 360kts
01-May-18 16:34 40.227913 -105.234652 134 18231ft 361kts
01-May-18 16:35 40.164431 -105.135384 133 16560ft 356kts
01-May-18 16:36 40.101378 -105.036992 133 15259ft 353kts
01-May-18 16:37 40.039797 -104.941156 133 14103ft 331kts
01-May-18 16:38 39.984584 -104.855393 132 13328ft 295kts
01-May-18 16:39 39.919391 -104.805389 180 12136ft 282kts
01-May-18 16:40 39.844771 -104.807470 179 11272ft 256kts
01-May-18 16:41 39.778443 -104.809198 181 10864ft 242kts
01-May-18 16:42 39.712787 -104.810937 182 9973ft 238kts
01-May-18 16:43 39.647677 -104.812647 183 9038ft 235kts
01-May-18 16:44 39.588826 -104.811987 162 8988ft 204kts
01-May-18 16:45 39.574816 -104.742709 88 8987ft 220kts
01-May-18 16:46 39.609532 -104.683755 28 8983ft 223kts
01-May-18 16:47 39.666086 -104.662413 356 8638ft 213kts
01-May-18 16:48 39.721583 -104.661858 354 7531ft 184kts
01-May-18 16:49 39.764094 -104.661383 359 6707ft 125kts
01-May-18 16:50 39.798133 -104.660924 359 6075ft 125kts
01-May-18 16:51 39.831287 -104.660368 359 5450ft 121kts
01-May-18 16:52 39.846146 -104.660277 356 5443ft 26kts
01-May-18 16:53 39.849053 -104.661340 330 5443ft 6kts
01-May-18 16:54 39.852656 -104.662375 331 5443ft 11kts
01-May-18 16:55 39.852720 -104.666648 270 5443ft 13kts
01-May-18 16:56 39.852779 -104.672354 269 5443ft 16kts
01-May-18 16:57 39.853145 -104.675347 14 5443ft 3kts
01-May-18 16:58 39.853400 -104.675232 23 5443ft 0kts
01-May-18 16:59 39.853400 -104.675232 23 5443ft 0kts

Navigation Log

Ident Type
Flight plan parsing failed, navigation log unavailable